Flight Track Log - Related Links

Times and Time Zones

All times are in EDT time to prevent confusion due to time zone crossing. See the TFX114 flight status page for this flight to view local times or setup timezone preferences in your user account.

Time Position Orientation Groundspeed Altitude Reporting Facility
EDT Latitude Longitude Course Direction KTS MPH feet Rate Location/Type
Tue 06:11:05 PM -30.2169 153.1551 North 191 220 4,900  Level Aus ATC (RADAR)
Tue 06:11:20 PM -30.2031 153.1571 North 194 223 5,400 1,516 Climbing Aus ATC (RADAR)
Tue 06:12:40 PM -30.1258 153.1803 15° North 218 251 7,300 1,380 Climbing Aus ATC (RADAR)
Tue 06:13:00 PM -30.1057 153.1873 17° North 222 255 7,700 1,200 Climbing Aus ATC (RADAR)
Tue 06:13:35 PM -30.0704 153.2000 17° North 227 261 8,400 1,575 Climbing Aus ATC (RADAR)
Tue 06:14:20 PM -30.0254 153.2140 15° North 220 253 9,800 1,765 Climbing Aus ATC (RADAR)
Tue 06:15:00 PM -29.9867 153.2246 13° North 212 244 10,900 1,326 Climbing Aus ATC (RADAR)
Tue 06:15:55 PM -29.9326 153.2391 13° North 220 253 11,900 1,120 Climbing Aus ATC (RADAR)
Tue 06:16:15 PM -29.9121 153.2447 13° North 224 258 12,300 429 Climbing Aus ATC (RADAR)
Tue 06:18:15 PM -29.7759 153.2819 13° North 269 310 12,900 257 Climbing Aus ATC (RADAR)
Tue 06:18:35 PM -29.7510 153.2886 13° North 274 315 12,900  Level Aus ATC (RADAR)
Tue 06:19:10 PM -29.7073 153.3008 14° North 276 318 12,900  Level Aus ATC (RADAR)
Tue 06:19:55 PM -29.6509 153.3162 13° North 277 319 12,900  Level Aus ATC (RADAR)
Tue 06:20:35 PM -29.6003 153.3304 14° North 279 321 12,900  Level Aus ATC (RADAR)
Tue 06:21:24 PM -29.5372 153.3470 13° North 278 320 12,900  Level Aus ATC (RADAR)
Tue 06:21:39 PM -29.5186 153.3526 15° North 278 320 12,900  Level Aus ATC (RADAR)
Tue 06:22:49 PM -29.4324 153.3775 14° North 272 313 12,900  Level Aus ATC (RADAR)
Tue 06:23:14 PM -29.4013 153.3864 14° North 273 314 12,900 -500 Level Aus ATC (RADAR)
Tue 06:23:49 PM -29.3573 153.3989 14° North 280 322 12,400 -1,271 Descending Aus ATC (RADAR)
Tue 06:24:39 PM -29.2909 153.4188 15° North 296 341 11,100 -1,624 Descending Aus ATC (RADAR)
Tue 06:25:14 PM -29.2453 153.4327 15° North 292 336 10,100 -1,600 Descending Aus ATC (RADAR)
Tue 06:26:09 PM -29.1750 153.4560 16° North 287 330 8,700 -1,629 Descending Aus ATC (RADAR)
Tue 06:26:24 PM -29.1558 153.4627 17° North 288 331 8,200 -1,800 Descending Aus ATC (RADAR)
Tue 06:27:39 PM -29.0652 153.5047 22° Northeast 279 321 6,000 -1,745 Descending Aus ATC (RADAR)
Tue 06:28:14 PM -29.0257 153.5251 24° Northeast 268 308 5,000 -1,560 Descending Aus ATC (RADAR)
Tue 06:28:29 PM -29.0092 153.5336 24° Northeast 264 304 4,700 -1,800 Descending Aus ATC (RADAR)
Tue 06:29:04 PM -28.9701 153.5532 24° Northeast 262 302 3,500 -1,835 Descending Aus ATC (RADAR)
Tue 06:29:54 PM -28.9196 153.5842 28° Northeast 247 284 2,100 -1,482 Descending Aus ATC (RADAR)
Tue 06:30:29 PM -28.8848 153.6026 25° Northeast 238 274 1,400 -533 Descending Aus ATC (RADAR)
Tue 06:31:24 PM -28.8417 153.6215 21° North 174 200 1,300 -343 Descending Aus ATC (RADAR)
Tue 06:31:39 PM -28.8321 153.6192 348° North 156 180 1,000 -892 Descending Aus ATC (RADAR)
Tue 06:32:38 PM -28.8262 153.5838 281° West 119 137 200 -814 Descending Aus ATC (RADAR)

Login

Don't have an account? Register now (free) for customized features, flight alerts, and more!